sensor_id;sensor_type;location;lat;lon;timestamp;temperature;humidity
17399;DHT22;8817;48.170;8.592;2022-09-13T00:01:44;21.60;42.70
17399;DHT22;8817;48.170;8.592;2022-09-13T00:04:12;21.60;42.70
17399;DHT22;8817;48.170;8.592;2022-09-13T00:06:39;21.60;42.80
17399;DHT22;8817;48.170;8.592;2022-09-13T00:09:06;21.60;42.80
17399;DHT22;8817;48.170;8.592;2022-09-13T00:11:33;21.60;42.80
17399;DHT22;8817;48.170;8.592;2022-09-13T00:14:01;21.50;42.80
17399;DHT22;8817;48.170;8.592;2022-09-13T00:16:28;21.50;42.80
17399;DHT22;8817;48.170;8.592;2022-09-13T00:18:56;21.60;42.90
17399;DHT22;8817;48.170;8.592;2022-09-13T00:21:26;21.50;42.90
17399;DHT22;8817;48.170;8.592;2022-09-13T00:23:53;21.50;42.90
17399;DHT22;8817;48.170;8.592;2022-09-13T00:26:22;21.50;42.90
17399;DHT22;8817;48.170;8.592;2022-09-13T00:28:50;21.40;42.90
17399;DHT22;8817;48.170;8.592;2022-09-13T00:31:17;21.40;42.90
17399;DHT22;8817;48.170;8.592;2022-09-13T00:33:45;21.40;42.90
17399;DHT22;8817;48.170;8.592;2022-09-13T00:36:12;21.40;43.00
17399;DHT22;8817;48.170;8.592;2022-09-13T00:38:42;21.40;43.00
17399;DHT22;8817;48.170;8.592;2022-09-13T00:41:12;21.30;43.00
17399;DHT22;8817;48.170;8.592;2022-09-13T00:43:42;21.30;43.10
17399;DHT22;8817;48.170;8.592;2022-09-13T00:46:12;21.40;43.10
17399;DHT22;8817;48.170;8.592;2022-09-13T00:48:39;21.30;43.10
17399;DHT22;8817;48.170;8.592;2022-09-13T00:51:08;21.30;43.10
17399;DHT22;8817;48.170;8.592;2022-09-13T00:53:39;21.30;43.10
17399;DHT22;8817;48.170;8.592;2022-09-13T00:56:12;21.30;43.20
17399;DHT22;8817;48.170;8.592;2022-09-13T00:58:45;21.30;43.20
17399;DHT22;8817;48.170;8.592;2022-09-13T01:01:16;21.30;43.20
17399;DHT22;8817;48.170;8.592;2022-09-13T01:03:45;21.20;43.20
17399;DHT22;8817;48.170;8.592;2022-09-13T01:06:16;21.30;43.30
17399;DHT22;8817;48.170;8.592;2022-09-13T01:08:47;21.20;43.20
17399;DHT22;8817;48.170;8.592;2022-09-13T01:11:21;21.20;43.20
17399;DHT22;8817;48.170;8.592;2022-09-13T01:13:52;21.20;43.30
17399;DHT22;8817;48.170;8.592;2022-09-13T01:16:20;21.20;43.30
17399;DHT22;8817;48.170;8.592;2022-09-13T01:18:47;21.10;43.30
17399;DHT22;8817;48.170;8.592;2022-09-13T01:27:26;21.10;43.40
17399;DHT22;8817;48.170;8.592;2022-09-13T01:30:07;21.10;43.40
17399;DHT22;8817;48.170;8.592;2022-09-13T01:35:39;21.10;43.40
17399;DHT22;8817;48.170;8.592;2022-09-13T01:38:16;21.10;43.40
17399;DHT22;8817;48.170;8.592;2022-09-13T01:40:53;21.10;43.40
17399;DHT22;8817;48.170;8.592;2022-09-13T01:43:31;21.00;43.40
17399;DHT22;8817;48.170;8.592;2022-09-13T01:46:05;21.00;43.40
17399;DHT22;8817;48.170;8.592;2022-09-13T01:48:48;21.00;43.50
17399;DHT22;8817;48.170;8.592;2022-09-13T01:51:23;20.90;43.40
17399;DHT22;8817;48.170;8.592;2022-09-13T01:54:02;20.90;43.50
17399;DHT22;8817;48.170;8.592;2022-09-13T01:56:35;20.90;43.50
17399;DHT22;8817;48.170;8.592;2022-09-13T01:59:09;20.90;43.50
17399;DHT22;8817;48.170;8.592;2022-09-13T02:01:42;20.90;43.50
17399;DHT22;8817;48.170;8.592;2022-09-13T02:04:14;20.90;43.60
17399;DHT22;8817;48.170;8.592;2022-09-13T02:06:47;20.90;43.60
17399;DHT22;8817;48.170;8.592;2022-09-13T02:09:19;20.80;43.60
17399;DHT22;8817;48.170;8.592;2022-09-13T02:11:51;20.80;43.70
17399;DHT22;8817;48.170;8.592;2022-09-13T02:14:21;20.80;43.70
17399;DHT22;8817;48.170;8.592;2022-09-13T02:16:55;20.80;43.80
17399;DHT22;8817;48.170;8.592;2022-09-13T02:19:25;20.80;43.80
17399;DHT22;8817;48.170;8.592;2022-09-13T02:21:57;20.80;43.80
17399;DHT22;8817;48.170;8.592;2022-09-13T02:24:29;20.70;43.70
17399;DHT22;8817;48.170;8.592;2022-09-13T02:27:00;20.70;43.80
17399;DHT22;8817;48.170;8.592;2022-09-13T02:29:30;20.70;43.80
17399;DHT22;8817;48.170;8.592;2022-09-13T02:32:03;20.70;44.40
17399;DHT22;8817;48.170;8.592;2022-09-13T02:34:35;20.70;44.00
17399;DHT22;8817;48.170;8.592;2022-09-13T02:37:05;20.70;44.00
17399;DHT22;8817;48.170;8.592;2022-09-13T02:39:35;20.70;44.00
17399;DHT22;8817;48.170;8.592;2022-09-13T02:42:07;20.60;44.10
17399;DHT22;8817;48.170;8.592;2022-09-13T02:44:39;20.60;44.10
17399;DHT22;8817;48.170;8.592;2022-09-13T02:47:18;20.60;44.20
17399;DHT22;8817;48.170;8.592;2022-09-13T02:49:56;20.60;44.20
17399;DHT22;8817;48.170;8.592;2022-09-13T02:52:33;20.60;44.20
17399;DHT22;8817;48.170;8.592;2022-09-13T02:55:10;20.60;44.20
17399;DHT22;8817;48.170;8.592;2022-09-13T02:57:44;20.60;44.40
17399;DHT22;8817;48.170;8.592;2022-09-13T03:00:14;20.60;44.30
17399;DHT22;8817;48.170;8.592;2022-09-13T03:02:43;20.60;44.40
17399;DHT22;8817;48.170;8.592;2022-09-13T03:05:12;20.60;44.40
17399;DHT22;8817;48.170;8.592;2022-09-13T03:07:39;20.60;44.40
17399;DHT22;8817;48.170;8.592;2022-09-13T03:10:08;20.60;44.50
17399;DHT22;8817;48.170;8.592;2022-09-13T03:12:54;20.60;44.50
17399;DHT22;8817;48.170;8.592;2022-09-13T03:15:36;20.60;44.60
17399;DHT22;8817;48.170;8.592;2022-09-13T03:18:16;20.60;44.60
17399;DHT22;8817;48.170;8.592;2022-09-13T03:20:50;20.50;44.60
17399;DHT22;8817;48.170;8.592;2022-09-13T03:23:31;20.50;44.60
17399;DHT22;8817;48.170;8.592;2022-09-13T03:26:11;20.50;44.70
17399;DHT22;8817;48.170;8.592;2022-09-13T03:28:52;20.50;44.80
17399;DHT22;8817;48.170;8.592;2022-09-13T03:31:28;20.50;44.80
17399;DHT22;8817;48.170;8.592;2022-09-13T03:34:05;20.50;44.90
17399;DHT22;8817;48.170;8.592;2022-09-13T03:36:35;20.50;44.90
17399;DHT22;8817;48.170;8.592;2022-09-13T03:39:10;20.50;44.90
17399;DHT22;8817;48.170;8.592;2022-09-13T03:41:41;20.50;45.00
17399;DHT22;8817;48.170;8.592;2022-09-13T03:44:11;20.50;45.00
17399;DHT22;8817;48.170;8.592;2022-09-13T03:46:42;20.50;45.10
17399;DHT22;8817;48.170;8.592;2022-09-13T03:49:14;20.50;45.10
17399;DHT22;8817;48.170;8.592;2022-09-13T03:51:42;20.50;45.20
17399;DHT22;8817;48.170;8.592;2022-09-13T03:54:14;20.50;45.20
17399;DHT22;8817;48.170;8.592;2022-09-13T03:56:42;20.50;45.20
17399;DHT22;8817;48.170;8.592;2022-09-13T03:59:09;20.50;45.20
17399;DHT22;8817;48.170;8.592;2022-09-13T04:01:36;20.50;45.20
17399;DHT22;8817;48.170;8.592;2022-09-13T04:04:02;20.50;45.30
17399;DHT22;8817;48.170;8.592;2022-09-13T04:06:31;20.50;45.30
17399;DHT22;8817;48.170;8.592;2022-09-13T04:08:58;20.50;45.90
17399;DHT22;8817;48.170;8.592;2022-09-13T04:11:26;20.50;45.30
17399;DHT22;8817;48.170;8.592;2022-09-13T04:13:54;20.50;45.30
17399;DHT22;8817;48.170;8.592;2022-09-13T04:16:22;20.50;45.30
17399;DHT22;8817;48.170;8.592;2022-09-13T04:18:49;20.50;45.30
17399;DHT22;8817;48.170;8.592;2022-09-13T04:21:16;20.50;45.30
17399;DHT22;8817;48.170;8.592;2022-09-13T04:23:49;20.40;45.30
17399;DHT22;8817;48.170;8.592;2022-09-13T04:26:16;20.40;45.40
17399;DHT22;8817;48.170;8.592;2022-09-13T04:28:43;20.40;45.40
17399;DHT22;8817;48.170;8.592;2022-09-13T04:31:09;20.40;45.50
17399;DHT22;8817;48.170;8.592;2022-09-13T04:33:36;20.40;45.50
17399;DHT22;8817;48.170;8.592;2022-09-13T04:36:03;20.40;45.60
17399;DHT22;8817;48.170;8.592;2022-09-13T04:38:30;20.40;45.70
17399;DHT22;8817;48.170;8.592;2022-09-13T04:40:59;20.40;46.30
17399;DHT22;8817;48.170;8.592;2022-09-13T04:43:25;20.40;45.70
17399;DHT22;8817;48.170;8.592;2022-09-13T04:45:52;20.40;45.70
17399;DHT22;8817;48.170;8.592;2022-09-13T04:48:19;20.50;45.80
17399;DHT22;8817;48.170;8.592;2022-09-13T04:50:46;20.50;45.80
17399;DHT22;8817;48.170;8.592;2022-09-13T04:53:13;20.50;45.80
17399;DHT22;8817;48.170;8.592;2022-09-13T04:55:40;20.50;45.80
17399;DHT22;8817;48.170;8.592;2022-09-13T04:58:09;20.50;45.80
17399;DHT22;8817;48.170;8.592;2022-09-13T05:00:36;20.40;45.80
17399;DHT22;8817;48.170;8.592;2022-09-13T05:03:03;20.50;45.80
17399;DHT22;8817;48.170;8.592;2022-09-13T05:05:31;20.40;45.80
17399;DHT22;8817;48.170;8.592;2022-09-13T05:07:58;20.40;45.90
17399;DHT22;8817;48.170;8.592;2022-09-13T05:10:25;20.40;45.90
17399;DHT22;8817;48.170;8.592;2022-09-13T05:12:52;20.40;45.90
17399;DHT22;8817;48.170;8.592;2022-09-13T05:15:21;20.40;45.90
17399;DHT22;8817;48.170;8.592;2022-09-13T05:17:47;20.40;46.00
17399;DHT22;8817;48.170;8.592;2022-09-13T05:20:14;20.40;46.00
17399;DHT22;8817;48.170;8.592;2022-09-13T05:22:42;20.40;46.00
17399;DHT22;8817;48.170;8.592;2022-09-13T05:25:09;20.40;46.00
17399;DHT22;8817;48.170;8.592;2022-09-13T05:27:36;20.40;46.10
17399;DHT22;8817;48.170;8.592;2022-09-13T05:30:03;20.40;46.10
17399;DHT22;8817;48.170;8.592;2022-09-13T05:32:32;20.40;46.20
17399;DHT22;8817;48.170;8.592;2022-09-13T05:34:59;20.40;46.20
17399;DHT22;8817;48.170;8.592;2022-09-13T05:37:26;20.40;46.20
17399;DHT22;8817;48.170;8.592;2022-09-13T05:39:53;20.40;46.30
17399;DHT22;8817;48.170;8.592;2022-09-13T05:42:19;20.40;46.30
17399;DHT22;8817;48.170;8.592;2022-09-13T05:44:46;20.30;46.30
17399;DHT22;8817;48.170;8.592;2022-09-13T05:47:13;20.40;46.40
17399;DHT22;8817;48.170;8.592;2022-09-13T05:49:42;20.30;46.40
17399;DHT22;8817;48.170;8.592;2022-09-13T05:52:09;20.40;46.50
17399;DHT22;8817;48.170;8.592;2022-09-13T05:54:36;20.40;46.60
17399;DHT22;8817;48.170;8.592;2022-09-13T05:57:03;20.40;46.60
17399;DHT22;8817;48.170;8.592;2022-09-13T05:59:30;20.40;46.60
17399;DHT22;8817;48.170;8.592;2022-09-13T06:01:57;20.50;46.70
17399;DHT22;8817;48.170;8.592;2022-09-13T06:04:24;20.50;46.80
17399;DHT22;8817;48.170;8.592;2022-09-13T06:06:52;20.50;46.80
17399;DHT22;8817;48.170;8.592;2022-09-13T06:09:19;20.50;46.90
17399;DHT22;8817;48.170;8.592;2022-09-13T06:11:46;20.60;47.00
17399;DHT22;8817;48.170;8.592;2022-09-13T06:14:13;20.70;47.10
17399;DHT22;8817;48.170;8.592;2022-09-13T06:16:40;20.70;47.10
17399;DHT22;8817;48.170;8.592;2022-09-13T06:19:07;20.80;47.20
17399;DHT22;8817;48.170;8.592;2022-09-13T06:21:34;20.90;47.30
17399;DHT22;8817;48.170;8.592;2022-09-13T06:24:03;20.90;47.30
17399;DHT22;8817;48.170;8.592;2022-09-13T06:26:30;21.00;47.40
17399;DHT22;8817;48.170;8.592;2022-09-13T06:28:57;21.10;47.40
17399;DHT22;8817;48.170;8.592;2022-09-13T06:31:26;21.20;47.50
17399;DHT22;8817;48.170;8.592;2022-09-13T06:33:57;21.20;47.40
17399;DHT22;8817;48.170;8.592;2022-09-13T06:36:24;21.30;47.50
17399;DHT22;8817;48.170;8.592;2022-09-13T06:38:51;21.40;47.50
17399;DHT22;8817;48.170;8.592;2022-09-13T06:41:21;21.40;47.50
17399;DHT22;8817;48.170;8.592;2022-09-13T06:43:52;21.50;47.50
17399;DHT22;8817;48.170;8.592;2022-09-13T06:46:20;21.60;47.60
17399;DHT22;8817;48.170;8.592;2022-09-13T06:48:47;21.60;47.60
17399;DHT22;8817;48.170;8.592;2022-09-13T06:51:16;21.70;47.60
17399;DHT22;8817;48.170;8.592;2022-09-13T06:53:44;21.70;47.60
17399;DHT22;8817;48.170;8.592;2022-09-13T06:56:13;21.80;47.60
17399;DHT22;8817;48.170;8.592;2022-09-13T06:58:44;21.80;47.60
17399;DHT22;8817;48.170;8.592;2022-09-13T07:01:13;21.90;47.70
17399;DHT22;8817;48.170;8.592;2022-09-13T07:03:42;22.00;47.70
17399;DHT22;8817;48.170;8.592;2022-09-13T07:06:11;22.00;47.80
17399;DHT22;8817;48.170;8.592;2022-09-13T07:08:39;22.10;47.80
17399;DHT22;8817;48.170;8.592;2022-09-13T07:11:06;22.20;47.90
17399;DHT22;8817;48.170;8.592;2022-09-13T07:13:34;22.20;47.90
17399;DHT22;8817;48.170;8.592;2022-09-13T07:16:04;22.30;47.90
17399;DHT22;8817;48.170;8.592;2022-09-13T07:18:32;22.40;48.00
17399;DHT22;8817;48.170;8.592;2022-09-13T07:21:00;22.40;48.00
17399;DHT22;8817;48.170;8.592;2022-09-13T07:23:29;22.50;48.10
17399;DHT22;8817;48.170;8.592;2022-09-13T07:25:56;22.60;48.10
17399;DHT22;8817;48.170;8.592;2022-09-13T07:28:27;22.70;48.20
17399;DHT22;8817;48.170;8.592;2022-09-13T07:30:55;22.80;48.20
17399;DHT22;8817;48.170;8.592;2022-09-13T07:33:24;22.80;48.20
17399;DHT22;8817;48.170;8.592;2022-09-13T07:35:55;22.90;48.30
17399;DHT22;8817;48.170;8.592;2022-09-13T07:38:22;23.00;48.30
17399;DHT22;8817;48.170;8.592;2022-09-13T07:40:53;23.10;48.40
17399;DHT22;8817;48.170;8.592;2022-09-13T07:43:20;23.20;48.40
17399;DHT22;8817;48.170;8.592;2022-09-13T07:45:47;23.30;48.40
17399;DHT22;8817;48.170;8.592;2022-09-13T07:48:14;23.40;48.50
17399;DHT22;8817;48.170;8.592;2022-09-13T07:50:43;23.50;48.50
17399;DHT22;8817;48.170;8.592;2022-09-13T07:53:09;23.60;48.50
17399;DHT22;8817;48.170;8.592;2022-09-13T07:55:36;23.70;48.50
17399;DHT22;8817;48.170;8.592;2022-09-13T07:58:03;23.70;48.50
17399;DHT22;8817;48.170;8.592;2022-09-13T08:00:31;23.80;48.50
17399;DHT22;8817;48.170;8.592;2022-09-13T08:02:57;23.90;48.50
17399;DHT22;8817;48.170;8.592;2022-09-13T08:05:24;24.00;48.40
17399;DHT22;8817;48.170;8.592;2022-09-13T08:07:53;24.00;48.40
17399;DHT22;8817;48.170;8.592;2022-09-13T08:10:19;24.10;48.40
17399;DHT22;8817;48.170;8.592;2022-09-13T08:12:46;24.20;48.40
17399;DHT22;8817;48.170;8.592;2022-09-13T08:15:13;24.20;48.40
17399;DHT22;8817;48.170;8.592;2022-09-13T08:17:40;24.20;48.30
17399;DHT22;8817;48.170;8.592;2022-09-13T08:20:08;24.30;48.40
17399;DHT22;8817;48.170;8.592;2022-09-13T08:22:35;24.40;48.50
17399;DHT22;8817;48.170;8.592;2022-09-13T08:25:04;24.40;48.50
17399;DHT22;8817;48.170;8.592;2022-09-13T08:27:31;24.50;48.60
17399;DHT22;8817;48.170;8.592;2022-09-13T08:29:58;24.60;48.60
17399;DHT22;8817;48.170;8.592;2022-09-13T08:32:25;24.70;48.70
17399;DHT22;8817;48.170;8.592;2022-09-13T08:34:51;24.70;48.70
17399;DHT22;8817;48.170;8.592;2022-09-13T08:37:18;24.80;48.60
17399;DHT22;8817;48.170;8.592;2022-09-13T08:39:45;25.00;48.70
17399;DHT22;8817;48.170;8.592;2022-09-13T08:42:26;25.00;48.60
17399;DHT22;8817;48.170;8.592;2022-09-13T08:44:58;25.10;48.60
17399;DHT22;8817;48.170;8.592;2022-09-13T08:47:37;25.20;48.60
17399;DHT22;8817;48.170;8.592;2022-09-13T08:50:13;25.20;48.50
17399;DHT22;8817;48.170;8.592;2022-09-13T08:53:00;25.30;48.60
17399;DHT22;8817;48.170;8.592;2022-09-13T08:55:39;25.40;48.60
17399;DHT22;8817;48.170;8.592;2022-09-13T08:58:32;25.50;48.70
17399;DHT22;8817;48.170;8.592;2022-09-13T09:01:05;25.50;48.70
17399;DHT22;8817;48.170;8.592;2022-09-13T09:03:40;25.70;48.80
17399;DHT22;8817;48.170;8.592;2022-09-13T09:06:12;25.70;48.90
17399;DHT22;8817;48.170;8.592;2022-09-13T09:08:44;25.80;48.80
17399;DHT22;8817;48.170;8.592;2022-09-13T09:11:22;25.90;48.90
17399;DHT22;8817;48.170;8.592;2022-09-13T09:13:57;26.00;48.90
17399;DHT22;8817;48.170;8.592;2022-09-13T09:16:32;26.10;48.90
17399;DHT22;8817;48.170;8.592;2022-09-13T09:19:11;26.20;48.90
17399;DHT22;8817;48.170;8.592;2022-09-13T09:21:40;26.30;48.90
17399;DHT22;8817;48.170;8.592;2022-09-13T09:24:10;26.40;48.90
17399;DHT22;8817;48.170;8.592;2022-09-13T09:26:42;26.50;48.90
17399;DHT22;8817;48.170;8.592;2022-09-13T09:29:19;26.60;49.00
17399;DHT22;8817;48.170;8.592;2022-09-13T09:31:53;26.60;48.90
17399;DHT22;8817;48.170;8.592;2022-09-13T09:34:29;26.80;48.90
17399;DHT22;8817;48.170;8.592;2022-09-13T09:37:13;26.80;48.80
17399;DHT22;8817;48.170;8.592;2022-09-13T09:39:42;26.90;48.80
17399;DHT22;8817;48.170;8.592;2022-09-13T09:42:12;27.00;48.80
17399;DHT22;8817;48.170;8.592;2022-09-13T09:44:46;27.10;48.70
17399;DHT22;8817;48.170;8.592;2022-09-13T09:47:17;27.20;48.60
17399;DHT22;8817;48.170;8.592;2022-09-13T09:49:46;27.30;48.70
17399;DHT22;8817;48.170;8.592;2022-09-13T09:52:35;27.40;48.60
17399;DHT22;8817;48.170;8.592;2022-09-13T09:55:18;27.50;48.50
17399;DHT22;8817;48.170;8.592;2022-09-13T09:57:55;27.50;48.30
17399;DHT22;8817;48.170;8.592;2022-09-13T10:00:26;27.60;48.30
17399;DHT22;8817;48.170;8.592;2022-09-13T10:02:57;27.70;48.10
17399;DHT22;8817;48.170;8.592;2022-09-13T10:05:26;27.80;48.10
17399;DHT22;8817;48.170;8.592;2022-09-13T10:07:57;27.90;48.10
17399;DHT22;8817;48.170;8.592;2022-09-13T10:10:30;27.90;47.90
17399;DHT22;8817;48.170;8.592;2022-09-13T10:13:02;28.00;47.80
17399;DHT22;8817;48.170;8.592;2022-09-13T10:15:32;28.10;47.80
17399;DHT22;8817;48.170;8.592;2022-09-13T10:18:15;28.20;47.70
17399;DHT22;8817;48.170;8.592;2022-09-13T10:20:59;28.30;47.80
17399;DHT22;8817;48.170;8.592;2022-09-13T10:23:26;28.40;47.70
17399;DHT22;8817;48.170;8.592;2022-09-13T10:26:03;28.50;47.50
17399;DHT22;8817;48.170;8.592;2022-09-13T10:28:34;28.50;47.50
17399;DHT22;8817;48.170;8.592;2022-09-13T10:31:05;28.60;47.30
17399;DHT22;8817;48.170;8.592;2022-09-13T10:33:35;28.70;47.30
17399;DHT22;8817;48.170;8.592;2022-09-13T10:36:05;28.80;47.30
17399;DHT22;8817;48.170;8.592;2022-09-13T10:38:36;28.80;47.20
17399;DHT22;8817;48.170;8.592;2022-09-13T10:41:06;28.90;47.10
17399;DHT22;8817;48.170;8.592;2022-09-13T10:43:34;29.00;47.00
17399;DHT22;8817;48.170;8.592;2022-09-13T10:46:05;29.10;46.90
17399;DHT22;8817;48.170;8.592;2022-09-13T10:48:45;29.20;46.70
17399;DHT22;8817;48.170;8.592;2022-09-13T10:51:28;29.20;46.50
17399;DHT22;8817;48.170;8.592;2022-09-13T10:54:16;29.30;46.40
17399;DHT22;8817;48.170;8.592;2022-09-13T10:56:44;29.40;46.50
17399;DHT22;8817;48.170;8.592;2022-09-13T10:59:18;29.50;46.20
17399;DHT22;8817;48.170;8.592;2022-09-13T11:02:01;29.60;45.90
17399;DHT22;8817;48.170;8.592;2022-09-13T11:05:04;29.70;45.80
17399;DHT22;8817;48.170;8.592;2022-09-13T11:10:53;29.80;45.80
17399;DHT22;8817;48.170;8.592;2022-09-13T11:13:33;29.90;45.40
17399;DHT22;8817;48.170;8.592;2022-09-13T11:16:10;29.90;45.20
17399;DHT22;8817;48.170;8.592;2022-09-13T11:18:48;29.90;45.00
17399;DHT22;8817;48.170;8.592;2022-09-13T11:21:30;29.90;44.90
17399;DHT22;8817;48.170;8.592;2022-09-13T11:26:58;30.00;44.90
17399;DHT22;8817;48.170;8.592;2022-09-13T11:29:36;30.00;44.90
17399;DHT22;8817;48.170;8.592;2022-09-13T11:32:15;30.10;44.90
17399;DHT22;8817;48.170;8.592;2022-09-13T11:34:58;30.10;44.90
17399;DHT22;8817;48.170;8.592;2022-09-13T11:37:39;30.10;44.70
17399;DHT22;8817;48.170;8.592;2022-09-13T11:40:27;30.20;44.70
17399;DHT22;8817;48.170;8.592;2022-09-13T11:43:04;30.20;44.80
17399;DHT22;8817;48.170;8.592;2022-09-13T11:45:37;30.30;44.60
17399;DHT22;8817;48.170;8.592;2022-09-13T11:48:18;30.30;44.40
17399;DHT22;8817;48.170;8.592;2022-09-13T11:50:56;30.40;44.40
17399;DHT22;8817;48.170;8.592;2022-09-13T11:53:51;30.50;44.30
17399;DHT22;8817;48.170;8.592;2022-09-13T11:56:26;30.50;44.20
17399;DHT22;8817;48.170;8.592;2022-09-13T11:59:06;30.60;44.10
17399;DHT22;8817;48.170;8.592;2022-09-13T12:01:42;30.70;44.00
17399;DHT22;8817;48.170;8.592;2022-09-13T12:04:18;30.80;44.00
17399;DHT22;8817;48.170;8.592;2022-09-13T12:06:53;30.90;44.00
17399;DHT22;8817;48.170;8.592;2022-09-13T12:09:24;31.00;43.90
17399;DHT22;8817;48.170;8.592;2022-09-13T12:12:00;31.10;43.80
17399;DHT22;8817;48.170;8.592;2022-09-13T12:14:36;31.20;43.80
17399;DHT22;8817;48.170;8.592;2022-09-13T12:17:14;31.30;43.70
17399;DHT22;8817;48.170;8.592;2022-09-13T12:19:45;31.40;43.70
17399;DHT22;8817;48.170;8.592;2022-09-13T12:22:16;31.50;43.70
17399;DHT22;8817;48.170;8.592;2022-09-13T12:24:46;31.60;43.60
17399;DHT22;8817;48.170;8.592;2022-09-13T12:27:22;31.80;43.50
17399;DHT22;8817;48.170;8.592;2022-09-13T12:29:52;31.80;43.10
17399;DHT22;8817;48.170;8.592;2022-09-13T12:32:20;31.90;43.00
17399;DHT22;8817;48.170;8.592;2022-09-13T12:34:49;32.00;42.90
17399;DHT22;8817;48.170;8.592;2022-09-13T12:37:35;32.00;42.70
17399;DHT22;8817;48.170;8.592;2022-09-13T12:40:28;32.10;42.70
17399;DHT22;8817;48.170;8.592;2022-09-13T12:43:07;32.10;42.60
17399;DHT22;8817;48.170;8.592;2022-09-13T12:46:08;32.20;42.40
17399;DHT22;8817;48.170;8.592;2022-09-13T12:48:50;32.20;42.50
17399;DHT22;8817;48.170;8.592;2022-09-13T12:51:33;32.20;42.10
17399;DHT22;8817;48.170;8.592;2022-09-13T12:54:33;32.20;42.10
17399;DHT22;8817;48.170;8.592;2022-09-13T12:57:20;32.20;42.30
17399;DHT22;8817;48.170;8.592;2022-09-13T13:00:07;32.30;42.20
17399;DHT22;8817;48.170;8.592;2022-09-13T13:02:37;32.30;42.00
17399;DHT22;8817;48.170;8.592;2022-09-13T13:05:20;32.30;42.00
17399;DHT22;8817;48.170;8.592;2022-09-13T13:07:52;32.30;42.10
17399;DHT22;8817;48.170;8.592;2022-09-13T13:10:27;32.30;41.90
17399;DHT22;8817;48.170;8.592;2022-09-13T13:13:10;32.30;41.80
17399;DHT22;8817;48.170;8.592;2022-09-13T13:16:04;32.30;41.60
17399;DHT22;8817;48.170;8.592;2022-09-13T13:18:43;32.20;41.40
17399;DHT22;8817;48.170;8.592;2022-09-13T13:21:33;32.20;41.20
17399;DHT22;8817;48.170;8.592;2022-09-13T13:24:43;32.10;41.20
17399;DHT22;8817;48.170;8.592;2022-09-13T13:27:37;32.10;41.20
17399;DHT22;8817;48.170;8.592;2022-09-13T13:33:23;31.90;41.10
17399;DHT22;8817;48.170;8.592;2022-09-13T13:35:52;31.80;40.90
17399;DHT22;8817;48.170;8.592;2022-09-13T13:38:44;31.80;41.00
17399;DHT22;8817;48.170;8.592;2022-09-13T13:41:38;31.70;41.10
17399;DHT22;8817;48.170;8.592;2022-09-13T13:47:53;31.60;41.10
17399;DHT22;8817;48.170;8.592;2022-09-13T13:50:20;31.70;41.40
17399;DHT22;8817;48.170;8.592;2022-09-13T13:52:53;31.70;41.10
17399;DHT22;8817;48.170;8.592;2022-09-13T13:55:41;31.70;41.00
17399;DHT22;8817;48.170;8.592;2022-09-13T13:58:29;31.70;41.10
17399;DHT22;8817;48.170;8.592;2022-09-13T14:00:59;31.70;41.10
17399;DHT22;8817;48.170;8.592;2022-09-13T14:03:39;31.80;41.10
17399;DHT22;8817;48.170;8.592;2022-09-13T14:06:14;31.80;41.10
17399;DHT22;8817;48.170;8.592;2022-09-13T14:08:58;31.90;41.10
17399;DHT22;8817;48.170;8.592;2022-09-13T14:11:40;32.00;41.10
17399;DHT22;8817;48.170;8.592;2022-09-13T14:14:34;32.00;41.20
17399;DHT22;8817;48.170;8.592;2022-09-13T14:17:29;32.10;41.20
17399;DHT22;8817;48.170;8.592;2022-09-13T14:20:02;32.30;41.20
17399;DHT22;8817;48.170;8.592;2022-09-13T14:22:30;32.30;41.00
17399;DHT22;8817;48.170;8.592;2022-09-13T14:24:59;32.50;41.10
17399;DHT22;8817;48.170;8.592;2022-09-13T14:27:39;32.50;41.20
17399;DHT22;8817;48.170;8.592;2022-09-13T14:30:17;32.60;41.20
17399;DHT22;8817;48.170;8.592;2022-09-13T14:32:47;32.70;41.00
17399;DHT22;8817;48.170;8.592;2022-09-13T14:35:24;32.80;40.80
17399;DHT22;8817;48.170;8.592;2022-09-13T14:37:52;32.90;40.70
17399;DHT22;8817;48.170;8.592;2022-09-13T14:40:22;32.90;40.60
17399;DHT22;8817;48.170;8.592;2022-09-13T14:42:52;33.00;40.50
17399;DHT22;8817;48.170;8.592;2022-09-13T14:45:21;33.00;40.40
17399;DHT22;8817;48.170;8.592;2022-09-13T14:47:52;33.00;40.40
17399;DHT22;8817;48.170;8.592;2022-09-13T14:50:24;33.10;40.30
17399;DHT22;8817;48.170;8.592;2022-09-13T14:52:53;33.10;40.10
17399;DHT22;8817;48.170;8.592;2022-09-13T14:55:26;33.10;40.10
17399;DHT22;8817;48.170;8.592;2022-09-13T14:57:57;33.20;40.20
17399;DHT22;8817;48.170;8.592;2022-09-13T15:00:26;33.30;40.30
17399;DHT22;8817;48.170;8.592;2022-09-13T15:02:56;33.30;40.30
17399;DHT22;8817;48.170;8.592;2022-09-13T15:05:27;33.40;40.30
17399;DHT22;8817;48.170;8.592;2022-09-13T15:07:55;33.50;40.30
17399;DHT22;8817;48.170;8.592;2022-09-13T15:10:24;33.60;40.40
17399;DHT22;8817;48.170;8.592;2022-09-13T15:12:55;33.70;40.40
17399;DHT22;8817;48.170;8.592;2022-09-13T15:15:35;33.70;40.20
17399;DHT22;8817;48.170;8.592;2022-09-13T15:18:05;33.70;40.10
17399;DHT22;8817;48.170;8.592;2022-09-13T15:20:49;33.80;40.00
17399;DHT22;8817;48.170;8.592;2022-09-13T15:23:18;33.80;39.80
17399;DHT22;8817;48.170;8.592;2022-09-13T15:25:49;33.90;39.60
17399;DHT22;8817;48.170;8.592;2022-09-13T15:28:24;33.80;39.30
17399;DHT22;8817;48.170;8.592;2022-09-13T15:30:52;33.80;39.20
17399;DHT22;8817;48.170;8.592;2022-09-13T15:33:25;33.70;39.10
17399;DHT22;8817;48.170;8.592;2022-09-13T15:36:13;33.60;39.10
17399;DHT22;8817;48.170;8.592;2022-09-13T15:38:57;33.50;39.00
17399;DHT22;8817;48.170;8.592;2022-09-13T15:41:28;33.40;39.00
17399;DHT22;8817;48.170;8.592;2022-09-13T15:43:56;33.30;38.90
17399;DHT22;8817;48.170;8.592;2022-09-13T15:46:23;33.20;38.80
17399;DHT22;8817;48.170;8.592;2022-09-13T15:48:52;33.00;38.70
17399;DHT22;8817;48.170;8.592;2022-09-13T15:51:21;32.90;38.70
17399;DHT22;8817;48.170;8.592;2022-09-13T15:53:49;32.70;38.60
17399;DHT22;8817;48.170;8.592;2022-09-13T15:56:17;32.60;38.70
17399;DHT22;8817;48.170;8.592;2022-09-13T15:58:45;32.50;38.60
17399;DHT22;8817;48.170;8.592;2022-09-13T16:01:13;32.40;38.70
17399;DHT22;8817;48.170;8.592;2022-09-13T16:03:41;32.30;38.80
17399;DHT22;8817;48.170;8.592;2022-09-13T16:06:08;32.20;38.80
17399;DHT22;8817;48.170;8.592;2022-09-13T16:08:37;32.10;38.80
17399;DHT22;8817;48.170;8.592;2022-09-13T16:11:05;32.00;38.80
17399;DHT22;8817;48.170;8.592;2022-09-13T16:13:32;31.90;38.80
17399;DHT22;8817;48.170;8.592;2022-09-13T16:15:59;31.70;38.80
17399;DHT22;8817;48.170;8.592;2022-09-13T16:18:27;31.70;38.90
17399;DHT22;8817;48.170;8.592;2022-09-13T16:20:54;31.60;39.00
17399;DHT22;8817;48.170;8.592;2022-09-13T16:23:20;31.50;39.00
17399;DHT22;8817;48.170;8.592;2022-09-13T16:25:51;31.40;39.00
17399;DHT22;8817;48.170;8.592;2022-09-13T16:28:20;31.30;39.10
17399;DHT22;8817;48.170;8.592;2022-09-13T16:30:47;31.30;39.20
17399;DHT22;8817;48.170;8.592;2022-09-13T16:33:14;31.10;39.20
17399;DHT22;8817;48.170;8.592;2022-09-13T16:35:41;31.10;39.30
17399;DHT22;8817;48.170;8.592;2022-09-13T16:38:08;31.00;39.30
17399;DHT22;8817;48.170;8.592;2022-09-13T16:40:37;30.90;39.50